Time,TemperatureF,DewpointF,PressureIn,WindDirection,WindDirectionDegrees,WindSpeedMPH,WindSpeedGustMPH,Humidity,HourlyPrecipIn,Conditions,Clouds,dailyrainin,SolarRadiationWatts/m^2,SoftwareType,DateUTC
2013-08-14 00:00:00,78.0,69.0,-100.00,NNW,331,1.0,-999.0,74,0.00,,,0.00,1.000000,,2013-08-14 05:00:00,
2013-08-14 00:42:00,78.0,69.0,-100.00,NNW,331,1.0,-999.0,74,0.00,,,0.00,1.000000,,2013-08-14 05:42:00,
2013-08-14 00:52:00,78.0,69.0,-100.00,NNW,331,1.0,-999.0,74,0.00,,,0.00,1.000000,,2013-08-14 05:52:00,
2013-08-14 01:00:00,77.0,69.0,-100.00,North,360,1.0,-999.0,77,0.00,,,0.00,1.000000,,2013-08-14 06:00:00,
2013-08-14 01:42:00,77.0,69.0,-100.00,North,360,1.0,-999.0,77,0.00,,,0.00,1.000000,,2013-08-14 06:42:00,
2013-08-14 01:52:00,77.0,69.0,-100.00,North,360,1.0,-999.0,77,0.00,,,0.00,1.000000,,2013-08-14 06:52:00,
2013-08-14 02:00:00,76.0,70.0,-100.00,NNW,336,0.0,-999.0,82,0.00,,,0.00,1.000000,,2013-08-14 07:00:00,
2013-08-14 02:42:00,76.0,70.0,-100.00,NNW,336,0.0,-999.0,82,0.00,,,0.00,1.000000,,2013-08-14 07:42:00,
2013-08-14 02:52:00,76.0,70.0,-100.00,NNW,336,0.0,-999.0,82,0.00,,,0.00,1.000000,,2013-08-14 07:52:00,
2013-08-14 03:00:00,75.0,69.0,-100.00,NNW,347,1.0,-999.0,81,0.00,,,0.00,1.000000,,2013-08-14 08:00:00,
2013-08-14 03:42:00,75.0,69.0,-100.00,NNW,347,1.0,-999.0,81,0.00,,,0.00,1.000000,,2013-08-14 08:42:00,
2013-08-14 03:52:00,75.0,69.0,-100.00,NNW,347,1.0,-999.0,81,0.00,,,0.00,1.000000,,2013-08-14 08:52:00,
2013-08-14 04:00:00,76.0,67.0,-100.00,NNW,336,0.0,-999.0,74,0.00,,,0.00,1.000000,,2013-08-14 09:00:00,
2013-08-14 04:43:00,76.0,67.0,-100.00,NNW,336,0.0,-999.0,74,0.00,,,0.00,1.000000,,2013-08-14 09:43:00,
2013-08-14 04:53:00,76.0,67.0,-100.00,NNW,336,0.0,-999.0,74,0.00,,,0.00,1.000000,,2013-08-14 09:53:00,
2013-08-14 05:00:00,76.0,69.0,-100.00,NNW,340,1.0,-999.0,78,0.00,,,0.00,1.000000,,2013-08-14 10:00:00,
2013-08-14 05:43:00,76.0,69.0,-100.00,NNW,340,1.0,-999.0,78,0.00,,,0.00,1.000000,,2013-08-14 10:43:00,
2013-08-14 05:52:00,76.0,69.0,-100.00,NNW,340,1.0,-999.0,78,0.00,,,0.00,1.000000,,2013-08-14 10:52:00,
2013-08-14 06:00:00,75.0,67.0,-100.00,North,7,1.0,-999.0,78,0.00,,,0.00,1.000000,,2013-08-14 11:00:00,
2013-08-14 06:42:00,75.0,67.0,-100.00,North,7,1.0,-999.0,78,0.00,,,0.00,1.000000,,2013-08-14 11:42:00,
2013-08-14 06:52:00,75.0,67.0,-100.00,North,7,1.0,-999.0,78,0.00,,,0.00,1.000000,,2013-08-14 11:52:00,
2013-08-14 07:00:00,74.0,67.0,-100.00,ENE,64,1.0,-999.0,79,0.00,,,0.00,9.000000,,2013-08-14 12:00:00,
2013-08-14 07:42:00,74.0,67.0,-100.00,ENE,64,1.0,-999.0,79,0.00,,,0.00,9.000000,,2013-08-14 12:42:00,
2013-08-14 07:52:00,74.0,67.0,-100.00,ENE,64,1.0,-999.0,79,0.00,,,0.00,9.000000,,2013-08-14 12:52:00,
2013-08-14 08:00:00,75.0,67.0,-100.00,North,349,0.0,-999.0,76,0.00,,,0.00,34.000000,,2013-08-14 13:00:00,
2013-08-14 08:42:00,75.0,67.0,-100.00,North,349,0.0,-999.0,76,0.00,,,0.00,34.000000,,2013-08-14 13:42:00,
2013-08-14 08:52:00,75.0,67.0,-100.00,North,349,0.0,-999.0,76,0.00,,,0.00,34.000000,,2013-08-14 13:52:00,
2013-08-14 09:00:00,75.0,66.0,-100.00,North,351,1.0,-999.0,74,0.00,,,0.00,54.000000,,2013-08-14 14:00:00,
2013-08-14 09:42:00,75.0,66.0,-100.00,North,351,1.0,-999.0,74,0.00,,,0.00,54.000000,,2013-08-14 14:42:00,
2013-08-14 09:52:00,75.0,66.0,-100.00,North,351,1.0,-999.0,74,0.00,,,0.00,54.000000,,2013-08-14 14:52:00,
2013-08-14 10:00:00,76.0,66.0,-100.00,North,352,1.0,-999.0,70,0.00,,,0.00,195.000000,,2013-08-14 15:00:00,
2013-08-14 10:44:00,76.0,66.0,-100.00,North,352,1.0,-999.0,70,0.00,,,0.00,195.000000,,2013-08-14 15:44:00,
2013-08-14 10:57:00,76.0,66.0,-100.00,North,352,1.0,-999.0,70,0.00,,,0.00,195.000000,,2013-08-14 15:57:00,
2013-08-14 11:00:00,77.0,66.0,-100.00,NNW,335,1.0,-999.0,68,0.00,,,0.00,325.000000,,2013-08-14 16:00:00,
2013-08-14 11:43:00,77.0,66.0,-100.00,NNW,335,1.0,-999.0,68,0.00,,,0.00,325.000000,,2013-08-14 16:43:00,
2013-08-14 12:00:00,80.0,65.0,-100.00,NE,37,1.0,-999.0,60,0.00,,,0.00,505.000000,,2013-08-14 17:00:00,
2013-08-14 12:44:00,80.0,65.0,-100.00,NE,37,1.0,-999.0,60,0.00,,,0.00,505.000000,,2013-08-14 17:44:00,
2013-08-14 12:55:00,80.0,65.0,-100.00,NE,37,1.0,-999.0,60,0.00,,,0.00,505.000000,,2013-08-14 17:55:00,
2013-08-14 13:00:00,80.0,64.0,-100.00,NE,56,0.0,-999.0,57,0.00,,,0.00,488.000000,,2013-08-14 18:00:00,
2013-08-14 14:00:00,82.0,64.0,-100.00,North,4,0.0,-999.0,56,0.00,,,0.00,679.000000,,2013-08-14 19:00:00,
2013-08-14 14:42:00,82.0,64.0,-100.00,North,4,0.0,-999.0,56,0.00,,,0.00,679.000000,,2013-08-14 19:42:00,
2013-08-14 15:00:00,83.0,64.0,-100.00,NNW,329,0.0,-999.0,52,0.00,,,0.00,797.000000,,2013-08-14 20:00:00,
2013-08-14 15:49:00,83.0,64.0,-100.00,NNW,329,0.0,-999.0,52,0.00,,,0.00,797.000000,,2013-08-14 20:49:00,
2013-08-14 16:00:00,83.0,63.0,-100.00,NNW,342,0.0,-999.0,51,0.00,,,0.00,477.000000,,2013-08-14 21:00:00,
2013-08-14 16:45:00,83.0,63.0,-100.00,NNW,342,0.0,-999.0,51,0.00,,,0.00,477.000000,,2013-08-14 21:45:00,
2013-08-14 16:55:00,83.0,63.0,-100.00,NNW,342,0.0,-999.0,51,0.00,,,0.00,477.000000,,2013-08-14 21:55:00,
2013-08-14 17:00:00,84.0,62.0,-100.00,ENE,57,0.0,-999.0,47,0.00,,,0.00,521.000000,,2013-08-14 22:00:00,
2013-08-14 17:44:00,84.0,62.0,-100.00,ENE,57,0.0,-999.0,47,0.00,,,0.00,521.000000,,2013-08-14 22:44:00,
2013-08-14 17:55:00,84.0,62.0,-100.00,ENE,57,0.0,-999.0,47,0.00,,,0.00,521.000000,,2013-08-14 22:55:00,
2013-08-14 18:00:00,83.0,64.0,-100.00,North,2,1.0,-999.0,54,0.00,,,0.00,148.000000,,2013-08-14 23:00:00,
2013-08-14 18:46:00,83.0,64.0,-100.00,North,2,1.0,-999.0,54,0.00,,,0.00,148.000000,,2013-08-14 23:46:00,
2013-08-14 18:56:00,83.0,64.0,-100.00,North,2,1.0,-999.0,54,0.00,,,0.00,148.000000,,2013-08-14 23:56:00,
2013-08-14 19:00:00,81.0,61.0,-100.00,NE,53,1.0,-999.0,51,0.00,,,0.00,92.000000,,2013-08-15 00:00:00,
2013-08-14 19:43:00,81.0,61.0,-100.00,NE,53,1.0,-999.0,51,0.00,,,0.00,92.000000,,2013-08-15 00:43:00,
2013-08-14 19:52:00,81.0,61.0,-100.00,NE,53,1.0,-999.0,51,0.00,,,0.00,92.000000,,2013-08-15 00:52:00,
2013-08-14 20:00:00,79.0,60.0,-100.00,NE,52,0.0,-999.0,53,0.00,,,0.00,17.000000,,2013-08-15 01:00:00,
2013-08-14 20:42:00,79.0,60.0,-100.00,NE,52,0.0,-999.0,53,0.00,,,0.00,17.000000,,2013-08-15 01:42:00,
2013-08-14 20:52:00,79.0,60.0,-100.00,NE,52,0.0,-999.0,53,0.00,,,0.00,17.000000,,2013-08-15 01:52:00,
2013-08-14 21:00:00,76.0,59.0,-100.00,ENE,71,2.0,-999.0,56,0.00,,,0.00,1.000000,,2013-08-15 02:00:00,
2013-08-14 21:52:00,76.0,59.0,-100.00,ENE,71,2.0,-999.0,56,0.00,,,0.00,1.000000,,2013-08-15 02:52:00,
2013-08-14 22:00:00,75.0,59.0,-100.00,NE,55,1.0,-999.0,57,0.00,,,0.00,1.000000,,2013-08-15 03:00:00,
2013-08-14 22:44:00,75.0,59.0,-100.00,NE,55,1.0,-999.0,57,0.00,,,0.00,1.000000,,2013-08-15 03:44:00,
2013-08-14 22:53:00,75.0,59.0,-100.00,NE,55,1.0,-999.0,57,0.00,,,0.00,1.000000,,2013-08-15 03:53:00,